Flinterduin — PEBT — position and weather

sailwx.info

Track history (hours):
 
Tides and Currents Weather Stations Pressure Air Temp Water Temp Dewpoint Dewpoint Depression Visibility Wind Speed Wind Dir Waves Ship Positions

Flinterduin

Last reported at 2016-Feb-10 22:33 UTC. Time now 2016-Feb-14 12:45 UTC.
Position N 38°16' E 021°31'.

Length 112 m; beam 15 m.

Type: Cargo ship. MMSI: 246484000.

Date/timePositionNaut miles runAvg speedWind from/ knotsBaromVisibWave heightAir tempDewpointWater temp
2016-Feb-10 22:33N 38°16' E 021°31'9 9.3
2016-Feb-10 21:32N 38°14' E 021°19'9 9.4
2016-Feb-10 20:34N 38°07' E 021°13'9 9.3
2016-Feb-10 19:34N 37°59' E 021°06'9 9.2
2016-Feb-10 18:33N 37°50' E 021°03'112 8.9
2016-Feb-10 06:00N 36°18' E 022°24'20911.6 240 / 171018.3 5.4 1.514.5 7.2
2016-Feb-09 12:00N 36°06' E 026°42'18510.3 999 / 21024.5 5.4 14.8 6.0
2016-Feb-08 18:00N 35°48' E 030°30'   030 / 171025.8 5.4 0.514.8 7.4
2016-Feb-05 12:00N 36°42' E 034°36'   030 / 171013.6 5.4 0.522.1 9.8
2016-Feb-01 19:09N 34°41' E 033°33'5 9.1
2016-Feb-01 18:33N 34°42' E 033°27'5 4.4
2016-Feb-01 17:30N 34°43' E 033°21'0 0.1
2016-Feb-01 16:33N 34°43' E 033°21'0 0.0
2016-Feb-01 15:33N 34°43' E 033°21'0 0.0
2016-Feb-01 14:33N 34°43' E 033°21'0 0.0
2016-Feb-01 13:33N 34°43' E 033°21'0 0.0
2016-Feb-01 12:30N 34°43' E 033°21'0 0.0
2016-Feb-01 11:27N 34°43' E 033°21'0 0.0
2016-Feb-01 10:33N 34°43' E 033°21'0 0.0
2016-Feb-01 09:24N 34°43' E 033°21'0 0.0
2016-Feb-01 08:30N 34°43' E 033°21'0 0.0
2016-Feb-01 03:09N 34°43' E 033°21'0 0.0
2016-Feb-01 02:30N 34°43' E 033°21'0 0.0
2016-Feb-01 01:30N 34°43' E 033°21'0 0.0
2016-Feb-01 00:33N 34°43' E 033°21'0 0.0
2016-Jan-31 23:32N 34°43' E 033°21'  
Track history (hours):
 
Tides and Currents Weather Stations Pressure Air Temp Water Temp Dewpoint Dewpoint Depression Visibility Wind Speed Wind Dir Waves Ship Positions

Flinterduin

Last reported at 2016-Feb-10 22:33 UTC. Time now 2016-Feb-14 12:45 UTC.
Position N 38°16' E 021°31'.

Length 112 m; beam 15 m.

Type: Cargo ship. MMSI: 246484000.

Date/timePositionNaut miles runAvg speedWind from/ knotsBaromVisibWave heightAir tempDewpointWater temp
2016-Feb-10 22:33N 38°16' E 021°31'9 9.3
2016-Feb-10 21:32N 38°14' E 021°19'9 9.4
2016-Feb-10 20:34N 38°07' E 021°13'9 9.3
2016-Feb-10 19:34N 37°59' E 021°06'9 9.2
2016-Feb-10 18:33N 37°50' E 021°03'112 8.9
2016-Feb-10 06:00N 36°18' E 022°24'20911.6 240 / 171018.3 5.4 1.514.5 7.2
2016-Feb-09 12:00N 36°06' E 026°42'18510.3 999 / 21024.5 5.4 14.8 6.0
2016-Feb-08 18:00N 35°48' E 030°30'   030 / 171025.8 5.4 0.514.8 7.4
2016-Feb-05 12:00N 36°42' E 034°36'   030 / 171013.6 5.4 0.522.1 9.8
2016-Feb-01 19:09N 34°41' E 033°33'5 9.1
2016-Feb-01 18:33N 34°42' E 033°27'5 4.4
2016-Feb-01 17:30N 34°43' E 033°21'0 0.1
2016-Feb-01 16:33N 34°43' E 033°21'0 0.0
2016-Feb-01 15:33N 34°43' E 033°21'0 0.0
2016-Feb-01 14:33N 34°43' E 033°21'0 0.0
2016-Feb-01 13:33N 34°43' E 033°21'0 0.0
2016-Feb-01 12:30N 34°43' E 033°21'0 0.0
2016-Feb-01 11:27N 34°43' E 033°21'0 0.0
2016-Feb-01 10:33N 34°43' E 033°21'0 0.0
2016-Feb-01 09:24N 34°43' E 033°21'0 0.0
2016-Feb-01 08:30N 34°43' E 033°21'0 0.0
2016-Feb-01 03:09N 34°43' E 033°21'0 0.0
2016-Feb-01 02:30N 34°43' E 033°21'0 0.0
2016-Feb-01 01:30N 34°43' E 033°21'0 0.0
2016-Feb-01 00:33N 34°43' E 033°21'0 0.0
2016-Jan-31 23:32N 34°43' E 033°21'  

Dump ship's entire track history